createdAt,value
2018-09-13T00:00:28.149Z,20.20
2018-09-13T00:02:57.516Z,20.20
2018-09-13T00:05:26.977Z,20.20
2018-09-13T00:07:56.329Z,20.10
2018-09-13T00:10:25.781Z,20.10
2018-09-13T00:12:55.160Z,20.10
2018-09-13T00:15:24.566Z,20.10
2018-09-13T00:17:53.915Z,20.10
2018-09-13T00:20:23.293Z,19.80
2018-09-13T00:22:52.668Z,19.80
2018-09-13T00:25:22.045Z,19.80
2018-09-13T00:27:51.395Z,19.80
2018-09-13T00:30:20.799Z,19.80
2018-09-13T00:32:50.156Z,19.80
2018-09-13T00:35:19.520Z,19.50
2018-09-13T00:37:48.961Z,19.20
2018-09-13T00:40:18.406Z,19.00
2018-09-13T00:42:47.844Z,19.20
2018-09-13T00:45:17.265Z,19.20
2018-09-13T00:47:46.594Z,19.40
2018-09-13T00:50:16.277Z,19.40
2018-09-13T00:52:45.685Z,19.50
2018-09-13T00:55:15.030Z,19.30
2018-09-13T00:57:44.411Z,19.30
2018-09-13T01:00:14.861Z,19.40
2018-09-13T01:02:44.217Z,19.50
2018-09-13T01:05:13.528Z,19.60
2018-09-13T01:07:43.170Z,19.50
2018-09-13T01:10:12.654Z,19.50
2018-09-13T01:12:41.990Z,19.30
2018-09-13T01:15:11.394Z,19.10
2018-09-13T01:17:40.865Z,18.80
2018-09-13T01:20:10.294Z,18.80
2018-09-13T01:22:39.658Z,18.90
2018-09-13T01:25:09.042Z,18.90
2018-09-13T01:27:38.374Z,18.70
2018-09-13T01:30:07.824Z,18.40
2018-09-13T01:32:37.200Z,18.10
2018-09-13T01:35:06.601Z,18.00
2018-09-13T01:37:35.954Z,18.10
2018-09-13T01:40:05.511Z,18.20
2018-09-13T01:42:34.893Z,18.10
2018-09-13T01:45:04.292Z,18.10
2018-09-13T01:47:33.739Z,18.10
2018-09-13T01:50:03.192Z,18.10
2018-09-13T01:52:32.557Z,18.10
2018-09-13T01:55:01.905Z,18.10
2018-09-13T01:57:31.328Z,18.20
2018-09-13T02:00:00.682Z,18.20
2018-09-13T02:02:30.008Z,18.20
2018-09-13T02:04:59.344Z,18.20
2018-09-13T02:07:28.680Z,18.30
2018-09-13T02:09:58.013Z,18.20
2018-09-13T02:12:28.132Z,18.30
2018-09-13T02:14:57.919Z,18.30
2018-09-13T02:17:27.243Z,18.20
2018-09-13T02:19:56.696Z,18.00
2018-09-13T02:22:26.052Z,18.00
2018-09-13T02:24:55.397Z,18.10
2018-09-13T02:27:24.760Z,18.20
2018-09-13T02:29:54.158Z,18.10
2018-09-13T02:32:24.173Z,18.00
2018-09-13T02:34:53.633Z,17.80
2018-09-13T02:37:23.000Z,17.80
2018-09-13T02:39:52.391Z,17.80
2018-09-13T02:42:21.890Z,17.80
2018-09-13T02:44:51.516Z,17.70
2018-09-13T02:47:20.937Z,17.60
2018-09-13T02:49:50.276Z,17.60
2018-09-13T02:52:19.729Z,17.50
2018-09-13T02:54:49.080Z,17.40
2018-09-13T02:57:18.428Z,17.30
2018-09-13T02:59:47.777Z,17.40
2018-09-13T03:02:17.209Z,17.40
2018-09-13T03:04:46.549Z,17.30
2018-09-13T03:07:15.902Z,17.20
2018-09-13T03:09:45.266Z,17.20
2018-09-13T03:12:14.641Z,17.20
2018-09-13T03:14:43.993Z,17.30
2018-09-13T03:17:13.751Z,17.30
2018-09-13T03:19:43.106Z,17.20
2018-09-13T03:22:12.536Z,17.10
2018-09-13T03:24:41.965Z,17.10
2018-09-13T03:27:11.314Z,17.10
2018-09-13T03:29:40.766Z,17.20
2018-09-13T03:32:10.149Z,17.30
2018-09-13T03:34:39.485Z,17.30
2018-09-13T03:37:08.848Z,17.30
2018-09-13T03:39:38.229Z,17.20
2018-09-13T03:42:07.797Z,17.10
2018-09-13T03:44:37.045Z,17.00
2018-09-13T03:47:06.667Z,17.10
2018-09-13T03:49:36.714Z,17.10
2018-09-13T03:52:06.353Z,17.10
2018-09-13T03:54:35.692Z,17.00
2018-09-13T03:57:05.276Z,16.90
2018-09-13T03:59:34.740Z,16.80
2018-09-13T04:02:04.129Z,16.80
2018-09-13T04:04:33.642Z,16.80
2018-09-13T04:07:03.012Z,16.80
2018-09-13T04:09:32.365Z,16.80
2018-09-13T04:12:01.718Z,16.80
2018-09-13T04:14:31.144Z,16.80
2018-09-13T04:17:00.543Z,16.80
2018-09-13T04:19:34.998Z,16.70
2018-09-13T04:22:04.489Z,16.70
2018-09-13T04:24:33.940Z,16.80
2018-09-13T04:27:03.562Z,16.90
2018-09-13T04:29:33.039Z,16.90
2018-09-13T04:32:02.593Z,16.90
2018-09-13T04:34:31.953Z,17.10
2018-09-13T04:37:01.437Z,17.00
2018-09-13T04:39:31.124Z,16.90
2018-09-13T04:42:01.598Z,16.80
2018-09-13T04:44:30.944Z,16.80
2018-09-13T04:47:00.344Z,16.80
2018-09-13T04:49:29.744Z,16.80
2018-09-13T04:51:59.150Z,16.70
2018-09-13T04:54:28.681Z,16.50
2018-09-13T04:56:58.089Z,16.50
2018-09-13T04:59:27.538Z,16.40
2018-09-13T05:01:56.912Z,16.50
2018-09-13T05:04:26.392Z,16.50
2018-09-13T05:06:55.769Z,16.50
2018-09-13T05:09:25.148Z,16.40
2018-09-13T05:11:54.572Z,16.40
2018-09-13T05:14:23.956Z,16.40
2018-09-13T05:16:53.309Z,16.50
2018-09-13T05:19:22.679Z,16.60
2018-09-13T05:21:52.776Z,16.50
2018-09-13T05:24:22.248Z,16.40
2018-09-13T05:26:51.766Z,16.20
2018-09-13T05:29:21.213Z,16.00
2018-09-13T05:31:50.836Z,16.10
2018-09-13T05:34:20.205Z,16.20
2018-09-13T05:36:49.552Z,16.30
2018-09-13T05:39:19.000Z,16.50
2018-09-13T05:41:48.436Z,16.60
2018-09-13T05:44:17.984Z,16.60
2018-09-13T05:46:47.339Z,16.40
2018-09-13T05:49:16.790Z,16.30
2018-09-13T05:51:46.249Z,16.20
2018-09-13T05:54:15.759Z,16.30
2018-09-13T05:56:45.182Z,16.30
2018-09-13T05:59:15.053Z,16.20
2018-09-13T06:01:44.599Z,16.30
2018-09-13T06:04:14.078Z,16.20
2018-09-13T06:06:43.584Z,16.10
2018-09-13T06:09:12.966Z,16.30
2018-09-13T06:11:43.559Z,16.50
2018-09-13T06:14:12.925Z,16.70
2018-09-13T06:16:42.463Z,17.00
2018-09-13T06:19:11.908Z,17.20
2018-09-13T06:21:41.512Z,17.30
2018-09-13T06:24:11.158Z,17.50
2018-09-13T06:26:40.681Z,17.40
2018-09-13T06:29:10.948Z,17.50
2018-09-13T06:31:40.785Z,17.60
2018-09-13T06:34:10.244Z,17.70
2018-09-13T06:36:39.626Z,17.80
2018-09-13T06:39:10.633Z,17.90
2018-09-13T06:41:40.197Z,18.00
2018-09-13T06:44:10.567Z,18.10
2018-09-13T06:46:40.396Z,18.10
2018-09-13T06:49:09.830Z,18.40
2018-09-13T06:51:39.434Z,18.40
2018-09-13T06:54:09.026Z,18.40
2018-09-13T06:56:38.502Z,18.60
2018-09-13T06:59:07.984Z,18.80
2018-09-13T07:01:37.565Z,18.90
2018-09-13T07:04:07.360Z,19.20
2018-09-13T07:06:37.009Z,19.40
2018-09-13T07:09:10.239Z,19.60
2018-09-13T07:11:40.004Z,19.70
2018-09-13T07:14:09.728Z,19.80
2018-09-13T07:16:39.189Z,19.80
2018-09-13T07:19:08.680Z,19.90
2018-09-13T07:21:38.092Z,20.00
2018-09-13T07:24:07.605Z,20.20
2018-09-13T07:26:37.017Z,20.30
2018-09-13T07:29:06.550Z,20.30
2018-09-13T07:31:36.056Z,20.40
2018-09-13T07:34:05.436Z,20.60
2018-09-13T07:36:34.907Z,20.80
2018-09-13T07:39:06.778Z,20.90
2018-09-13T07:41:36.493Z,21.00
2018-09-13T07:44:05.908Z,21.10
2018-09-13T07:46:35.654Z,21.20
2018-09-13T07:49:05.197Z,21.20
2018-09-13T07:51:34.714Z,21.20
2018-09-13T07:54:04.219Z,21.30
2018-09-13T07:56:33.718Z,21.40
2018-09-13T07:59:03.189Z,21.40
2018-09-13T08:01:32.740Z,21.60
2018-09-13T08:04:02.138Z,21.80
2018-09-13T08:06:31.655Z,21.90
2018-09-13T08:09:01.504Z,22.10
2018-09-13T08:11:32.031Z,22.10
2018-09-13T08:14:01.487Z,22.20
2018-09-13T08:16:31.071Z,22.30
2018-09-13T08:19:00.626Z,22.20
2018-09-13T08:21:30.180Z,22.20
2018-09-13T08:24:00.069Z,22.30
2018-09-13T08:26:29.575Z,22.30
2018-09-13T08:28:59.041Z,22.20
2018-09-13T08:31:28.427Z,22.10
2018-09-13T08:33:58.046Z,21.90
2018-09-13T08:36:27.617Z,22.20
2018-09-13T08:38:57.141Z,22.40
2018-09-13T08:41:26.669Z,22.40
2018-09-13T08:43:58.888Z,22.40
2018-09-13T08:46:29.977Z,22.60
2018-09-13T08:49:01.836Z,22.90
2018-09-13T08:51:33.993Z,23.00
2018-09-13T08:54:07.047Z,22.90
2018-09-13T08:56:37.029Z,23.20
2018-09-13T08:59:06.763Z,23.30
2018-09-13T09:01:36.284Z,23.30
2018-09-13T09:04:05.790Z,23.50
2018-09-13T09:06:35.405Z,23.70
2018-09-13T09:09:07.634Z,23.90
2018-09-13T09:11:37.318Z,24.20
2018-09-13T09:14:06.918Z,24.10
2018-09-13T09:16:36.621Z,24.10
2018-09-13T09:19:06.305Z,23.90
2018-09-13T09:21:35.829Z,24.20
2018-09-13T09:24:05.483Z,24.50
2018-09-13T09:26:34.917Z,24.50
2018-09-13T09:29:04.482Z,24.60
2018-09-13T09:31:33.913Z,24.80
2018-09-13T09:34:03.438Z,24.80
2018-09-13T09:36:33.020Z,25.00
2018-09-13T09:39:02.533Z,25.10
2018-09-13T09:41:32.082Z,25.10
2018-09-13T09:44:01.707Z,25.10
2018-09-13T09:46:31.301Z,25.20
2018-09-13T09:49:00.857Z,25.30
2018-09-13T09:51:30.380Z,25.30
2018-09-13T09:53:59.825Z,25.50
2018-09-13T09:56:29.294Z,25.60
2018-09-13T09:58:58.771Z,25.70
2018-09-13T10:01:33.373Z,25.60
2018-09-13T10:04:02.954Z,25.70
2018-09-13T10:06:32.525Z,25.90
2018-09-13T10:09:01.874Z,26.00
2018-09-13T10:11:31.523Z,26.20
2018-09-13T10:14:01.013Z,26.40
2018-09-13T10:16:35.622Z,26.50
2018-09-13T10:19:10.342Z,26.60
2018-09-13T10:21:44.986Z,26.70
2018-09-13T10:24:19.323Z,26.70
2018-09-13T10:26:53.916Z,26.70
2018-09-13T10:29:28.515Z,26.80
2018-09-13T10:33:01.846Z,27.10
2018-09-13T10:35:36.353Z,27.30
2018-09-13T10:38:11.020Z,27.20
2018-09-13T10:40:45.940Z,27.50
2018-09-13T10:43:20.391Z,27.60
2018-09-13T10:45:55.098Z,27.40
2018-09-13T10:48:26.079Z,27.50
2018-09-13T10:51:01.637Z,27.30
2018-09-13T10:53:44.146Z,27.50
2018-09-13T10:56:13.844Z,27.80
2018-09-13T10:58:43.232Z,27.90
2018-09-13T11:01:12.868Z,28.20
2018-09-13T11:03:42.376Z,28.50
2018-09-13T11:06:11.808Z,28.30
2018-09-13T11:08:41.250Z,28.50
2018-09-13T11:11:10.765Z,28.30
2018-09-13T11:14:45.852Z,28.50
2018-09-13T11:17:15.408Z,28.90
2018-09-13T11:19:45.458Z,29.20
2018-09-13T11:22:14.960Z,29.00
2018-09-13T11:24:44.577Z,29.10
2018-09-13T11:27:14.245Z,29.10
2018-09-13T11:29:44.161Z,29.50
2018-09-13T11:32:14.057Z,29.70
2018-09-13T11:34:44.637Z,29.90
2018-09-13T11:37:14.549Z,29.70
2018-09-13T11:39:44.125Z,29.70
2018-09-13T11:42:13.666Z,30.60
2018-09-13T11:44:43.276Z,31.20
2018-09-13T11:47:13.002Z,32.40
2018-09-13T11:49:42.441Z,32.70
2018-09-13T11:52:12.613Z,32.80
2018-09-13T11:54:42.203Z,33.00
2018-09-13T11:57:11.656Z,33.30
2018-09-13T11:59:41.097Z,33.50
2018-09-13T12:02:10.613Z,33.50
2018-09-13T12:04:40.138Z,33.10
2018-09-13T12:07:09.648Z,32.50
2018-09-13T12:09:39.208Z,32.60
2018-09-13T12:12:08.657Z,32.50
2018-09-13T12:14:38.153Z,32.80
2018-09-13T12:17:07.745Z,33.80
2018-09-13T12:19:37.247Z,33.30
2018-09-13T12:22:06.818Z,33.30
2018-09-13T12:24:36.361Z,33.60
2018-09-13T12:27:05.899Z,32.40
2018-09-13T12:29:35.499Z,31.20
2018-09-13T12:32:05.152Z,30.20
2018-09-13T12:34:34.732Z,30.10
2018-09-13T12:37:04.360Z,30.40
2018-09-13T12:39:33.891Z,31.40
2018-09-13T12:42:03.421Z,32.60
2018-09-13T12:44:32.899Z,32.10
2018-09-13T12:47:02.488Z,31.80
2018-09-13T12:49:31.976Z,31.90
2018-09-13T12:52:01.571Z,32.40
2018-09-13T12:54:31.223Z,32.60
2018-09-13T12:57:00.822Z,31.50
2018-09-13T12:59:30.334Z,30.20
2018-09-13T13:01:59.857Z,29.80
2018-09-13T13:04:29.482Z,29.80
2018-09-13T13:06:59.132Z,30.20
2018-09-13T13:09:28.665Z,30.10
2018-09-13T13:11:58.198Z,29.80
2018-09-13T13:14:27.652Z,29.30
2018-09-13T13:16:57.168Z,28.80
2018-09-13T13:19:26.884Z,28.80
2018-09-13T13:21:56.450Z,29.00
2018-09-13T13:24:25.968Z,29.90
2018-09-13T13:26:55.550Z,31.10
2018-09-13T13:29:25.029Z,30.20
2018-09-13T13:31:54.601Z,29.60
2018-09-13T13:34:24.188Z,29.50
2018-09-13T13:36:53.704Z,31.00
2018-09-13T13:39:23.251Z,30.80
2018-09-13T13:41:52.745Z,30.20
2018-09-13T13:44:22.705Z,30.30
2018-09-13T13:46:52.533Z,30.40
2018-09-13T13:49:22.162Z,31.50
2018-09-13T13:51:51.770Z,31.80
2018-09-13T13:54:21.319Z,31.50
2018-09-13T13:56:50.857Z,32.10
2018-09-13T13:59:20.386Z,31.50
2018-09-13T14:01:49.953Z,31.00
2018-09-13T14:04:19.463Z,30.40
2018-09-13T14:06:48.918Z,29.80
2018-09-13T14:09:18.398Z,29.30
2018-09-13T14:11:48.033Z,29.70
2018-09-13T14:14:17.701Z,31.20
2018-09-13T14:16:47.234Z,31.80
2018-09-13T14:19:16.802Z,32.50
2018-09-13T14:21:46.497Z,33.80
2018-09-13T14:24:16.079Z,33.90
2018-09-13T14:26:45.661Z,33.70
2018-09-13T14:29:15.266Z,34.40
2018-09-13T14:31:44.860Z,35.10
2018-09-13T14:34:14.738Z,35.00
2018-09-13T14:36:44.193Z,34.70
2018-09-13T14:39:13.595Z,34.20
2018-09-13T14:41:43.298Z,34.70
2018-09-13T14:44:12.775Z,35.40
2018-09-13T14:46:42.302Z,35.10
2018-09-13T14:49:11.841Z,33.90
2018-09-13T14:51:41.429Z,34.10
2018-09-13T14:54:10.964Z,34.40
2018-09-13T14:56:40.437Z,35.00
2018-09-13T14:59:10.041Z,34.30
2018-09-13T15:01:39.721Z,34.00
2018-09-13T15:04:09.210Z,32.20
2018-09-13T15:06:38.732Z,31.50
2018-09-13T15:09:11.165Z,31.00
2018-09-13T15:11:40.795Z,30.40
2018-09-13T15:14:10.238Z,30.50
2018-09-13T15:16:39.778Z,31.10
2018-09-13T15:19:09.217Z,32.10
2018-09-13T15:21:38.889Z,32.60
2018-09-13T15:24:08.386Z,32.90
2018-09-13T15:26:37.907Z,32.50
2018-09-13T15:29:07.507Z,31.50
2018-09-13T15:31:37.246Z,30.70
2018-09-13T15:34:06.885Z,30.10
2018-09-13T15:36:36.485Z,29.70
2018-09-13T15:39:09.268Z,29.30
2018-09-13T15:41:38.848Z,29.30
2018-09-13T15:44:08.479Z,29.20
2018-09-13T15:46:37.952Z,28.90
2018-09-13T15:49:07.934Z,28.60
2018-09-13T15:51:37.828Z,28.50
2018-09-13T15:54:07.395Z,28.40
2018-09-13T15:56:36.922Z,28.40
2018-09-13T15:59:06.615Z,28.40
2018-09-13T16:01:36.296Z,28.10
2018-09-13T16:04:05.824Z,28.00
2018-09-13T16:06:35.516Z,27.90
2018-09-13T16:09:07.267Z,27.70
2018-09-13T16:11:36.983Z,27.50
2018-09-13T16:14:06.660Z,27.50
2018-09-13T16:16:36.405Z,27.50
2018-09-13T16:19:05.877Z,27.40
2018-09-13T16:21:36.556Z,27.30
2018-09-13T16:24:06.048Z,27.20
2018-09-13T16:26:35.519Z,27.20
2018-09-13T16:29:05.257Z,27.10
2018-09-13T16:31:35.102Z,27.10
2018-09-13T16:34:04.536Z,27.00
2018-09-13T16:36:34.617Z,26.90
2018-09-13T16:39:23.855Z,26.80
2018-09-13T16:41:58.285Z,26.80
2018-09-13T16:44:32.921Z,26.70
2018-09-13T16:47:07.996Z,26.70
2018-09-13T16:49:39.473Z,26.60
2018-09-13T16:52:09.075Z,26.60
2018-09-13T16:54:38.621Z,26.50
2018-09-13T16:57:08.055Z,26.40
2018-09-13T16:59:37.542Z,26.30
2018-09-13T17:02:07.064Z,26.20
2018-09-13T17:04:36.672Z,26.20
2018-09-13T17:07:06.276Z,26.10
2018-09-13T17:09:35.852Z,26.10
2018-09-13T17:12:05.516Z,26.10
2018-09-13T17:14:34.954Z,26.00
2018-09-13T17:17:04.389Z,25.90
2018-09-13T17:19:33.912Z,25.70
2018-09-13T17:22:03.578Z,25.70
2018-09-13T17:24:33.074Z,25.50
2018-09-13T17:27:02.631Z,25.40
2018-09-13T17:29:32.097Z,25.20
2018-09-13T17:32:01.616Z,25.10
2018-09-13T17:34:31.238Z,25.00
2018-09-13T17:37:00.748Z,24.90
2018-09-13T17:39:30.307Z,24.70
2018-09-13T17:41:59.877Z,24.40
2018-09-13T17:44:29.501Z,24.30
2018-09-13T17:46:58.984Z,24.30
2018-09-13T17:49:28.467Z,24.20
2018-09-13T17:51:58.068Z,24.20
2018-09-13T17:54:27.624Z,24.20
2018-09-13T17:56:57.169Z,24.30
2018-09-13T17:59:26.633Z,24.30
2018-09-13T18:01:56.280Z,24.30
2018-09-13T18:04:25.756Z,24.20
2018-09-13T18:06:55.333Z,24.10
2018-09-13T18:09:24.857Z,23.90
2018-09-13T18:11:54.581Z,23.90
2018-09-13T18:14:24.198Z,23.80
2018-09-13T18:16:54.144Z,23.90
2018-09-13T18:19:23.747Z,23.90
2018-09-13T18:21:53.229Z,24.00
2018-09-13T18:24:22.751Z,24.10
2018-09-13T18:26:52.321Z,24.10
2018-09-13T18:29:21.874Z,24.20
2018-09-13T18:31:51.368Z,24.20
2018-09-13T18:34:20.932Z,24.10
2018-09-13T18:36:50.474Z,24.00
2018-09-13T18:39:19.978Z,24.00
2018-09-13T18:41:49.479Z,24.00
2018-09-13T18:44:19.253Z,23.90
2018-09-13T18:46:48.868Z,23.90
2018-09-13T18:49:19.228Z,23.70
2018-09-13T18:51:48.680Z,23.70
2018-09-13T18:54:18.382Z,23.50
2018-09-13T18:56:47.849Z,23.50
2018-09-13T18:59:17.244Z,23.40
2018-09-13T19:01:46.789Z,23.40
2018-09-13T19:04:16.410Z,23.40
2018-09-13T19:06:45.861Z,23.30
2018-09-13T19:09:15.390Z,23.30
2018-09-13T19:11:44.923Z,23.20
2018-09-13T19:14:14.418Z,23.30
2018-09-13T19:16:43.956Z,23.40
2018-09-13T19:19:13.448Z,23.50
2018-09-13T19:21:42.997Z,23.40
2018-09-13T19:24:12.870Z,23.30
2018-09-13T19:26:42.212Z,23.30
2018-09-13T19:29:11.711Z,23.40
2018-09-13T19:31:41.317Z,23.40
2018-09-13T19:34:10.801Z,23.60
2018-09-13T19:36:40.362Z,23.70
2018-09-13T19:39:11.756Z,23.70
2018-09-13T19:41:41.621Z,23.80
2018-09-13T19:44:10.966Z,23.80
2018-09-13T19:46:40.353Z,23.80
2018-09-13T19:49:09.800Z,23.90
2018-09-13T19:51:39.259Z,23.90
2018-09-13T19:54:08.724Z,23.80
2018-09-13T19:56:38.371Z,23.70
2018-09-13T19:59:07.716Z,23.80
2018-09-13T20:01:37.149Z,23.70
2018-09-13T20:04:06.536Z,23.60
2018-09-13T20:06:36.052Z,23.30
2018-09-13T20:09:08.603Z,23.30
2018-09-13T20:11:37.997Z,23.50
2018-09-13T20:14:07.411Z,23.40
2018-09-13T20:16:36.807Z,23.50
2018-09-13T20:19:06.213Z,23.60
2018-09-13T20:21:35.720Z,23.70
2018-09-13T20:24:05.053Z,23.60
2018-09-13T20:26:34.455Z,23.60
2018-09-13T20:29:03.862Z,23.60
2018-09-13T20:31:33.205Z,23.70
2018-09-13T20:34:02.557Z,23.70
2018-09-13T20:36:31.929Z,23.70
2018-09-13T20:39:01.301Z,23.60
2018-09-13T20:41:30.661Z,23.70
2018-09-13T20:44:00.048Z,23.60
2018-09-13T20:46:29.384Z,23.60
2018-09-13T20:48:58.739Z,23.60
2018-09-13T20:51:28.140Z,23.50
2018-09-13T20:53:57.572Z,23.50
2018-09-13T20:56:27.001Z,23.50
2018-09-13T20:58:56.349Z,23.30
2018-09-13T21:01:25.728Z,23.40
2018-09-13T21:03:55.081Z,23.40
2018-09-13T21:06:24.645Z,23.50
2018-09-13T21:08:54.009Z,23.40
2018-09-13T21:11:23.433Z,23.30
2018-09-13T21:13:52.767Z,23.30
2018-09-13T21:16:22.186Z,23.30
2018-09-13T21:18:51.536Z,23.10
2018-09-13T21:21:20.972Z,23.20
2018-09-13T21:23:50.371Z,23.10
2018-09-13T21:26:19.777Z,23.10
2018-09-13T21:28:49.232Z,23.20
2018-09-13T21:31:18.660Z,23.20
2018-09-13T21:33:48.038Z,23.20
2018-09-13T21:36:17.391Z,23.20
2018-09-13T21:38:46.745Z,23.20
2018-09-13T21:41:16.224Z,23.10
2018-09-13T21:43:45.573Z,23.00
2018-09-13T21:46:14.929Z,23.10
2018-09-13T21:48:44.269Z,23.10
2018-09-13T21:51:13.681Z,23.00
2018-09-13T21:53:43.058Z,23.00
2018-09-13T21:56:12.385Z,22.90
2018-09-13T21:58:41.712Z,22.90
2018-09-13T22:01:11.117Z,22.90
2018-09-13T22:03:40.627Z,22.80
2018-09-13T22:06:10.049Z,22.70
2018-09-13T22:08:39.389Z,22.60
2018-09-13T22:11:09.861Z,22.50
2018-09-13T22:13:39.200Z,22.40
2018-09-13T22:16:08.705Z,22.40
2018-09-13T22:18:38.055Z,22.40
2018-09-13T22:21:07.472Z,22.50
2018-09-13T22:23:36.805Z,22.40
2018-09-13T22:26:06.176Z,22.50
2018-09-13T22:28:35.566Z,22.40
2018-09-13T22:31:04.987Z,22.40
2018-09-13T22:33:34.416Z,22.40
2018-09-13T22:36:03.890Z,22.40
2018-09-13T22:38:33.227Z,22.40
2018-09-13T22:41:02.658Z,22.30
2018-09-13T22:43:36.964Z,22.20
2018-09-13T22:46:06.329Z,22.20
2018-09-13T22:48:35.700Z,22.10
2018-09-13T22:51:05.285Z,22.10
2018-09-13T22:53:34.700Z,22.10
2018-09-13T22:56:04.040Z,22.10
2018-09-13T22:58:33.399Z,22.10
2018-09-13T23:01:02.932Z,22.10
2018-09-13T23:03:32.289Z,22.10
2018-09-13T23:06:01.651Z,22.10
2018-09-13T23:08:31.024Z,22.00
2018-09-13T23:11:00.513Z,22.00
2018-09-13T23:13:29.884Z,22.00
2018-09-13T23:15:59.296Z,22.10
2018-09-13T23:18:28.637Z,22.10
2018-09-13T23:20:58.122Z,22.10
2018-09-13T23:23:27.476Z,22.10
2018-09-13T23:25:56.846Z,22.00
2018-09-13T23:28:26.173Z,22.00
2018-09-13T23:30:55.547Z,22.00
2018-09-13T23:33:24.896Z,22.00
2018-09-13T23:35:54.280Z,21.90
2018-09-13T23:38:23.652Z,21.90
2018-09-13T23:40:55.312Z,21.90
2018-09-13T23:43:24.676Z,21.90
2018-09-13T23:45:54.028Z,21.90
2018-09-13T23:48:23.416Z,21.80
2018-09-13T23:50:52.837Z,21.80
2018-09-13T23:53:22.173Z,21.60
2018-09-13T23:55:51.495Z,21.50
2018-09-13T23:58:20.837Z,21.40
